sensor_id;sensor_type;location;lat;lon;timestamp;P1;durP1;ratioP1;P2;durP2;ratioP2
73675;SDS011;61975;48.660;10.164;2023-08-31T00:00:31;2.93;;;1.10;;
73675;SDS011;61975;48.660;10.164;2023-08-31T00:02:57;3.90;;;1.15;;
73675;SDS011;61975;48.660;10.164;2023-08-31T00:05:24;3.30;;;1.10;;
73675;SDS011;61975;48.660;10.164;2023-08-31T00:07:52;3.20;;;1.10;;
73675;SDS011;61975;48.660;10.164;2023-08-31T00:10:17;2.60;;;1.00;;
73675;SDS011;61975;48.660;10.164;2023-08-31T00:12:43;3.20;;;1.40;;
73675;SDS011;61975;48.660;10.164;2023-08-31T00:15:09;3.70;;;1.13;;
73675;SDS011;61975;48.660;10.164;2023-08-31T00:17:34;3.22;;;1.10;;
73675;SDS011;61975;48.660;10.164;2023-08-31T00:20:00;2.90;;;1.20;;
73675;SDS011;61975;48.660;10.164;2023-08-31T00:22:26;2.72;;;1.08;;
73675;SDS011;61975;48.660;10.164;2023-08-31T00:24:51;3.17;;;1.30;;
73675;SDS011;61975;48.660;10.164;2023-08-31T00:27:17;3.92;;;1.38;;
73675;SDS011;61975;48.660;10.164;2023-08-31T00:29:43;3.03;;;1.17;;
73675;SDS011;61975;48.660;10.164;2023-08-31T00:32:14;3.78;;;1.35;;
73675;SDS011;61975;48.660;10.164;2023-08-31T00:34:40;3.53;;;1.23;;
73675;SDS011;61975;48.660;10.164;2023-08-31T00:37:05;3.10;;;1.37;;
73675;SDS011;61975;48.660;10.164;2023-08-31T00:39:31;3.37;;;1.30;;
73675;SDS011;61975;48.660;10.164;2023-08-31T00:41:58;3.70;;;1.80;;
73675;SDS011;61975;48.660;10.164;2023-08-31T00:44:24;3.13;;;1.40;;
73675;SDS011;61975;48.660;10.164;2023-08-31T00:46:49;3.25;;;1.40;;
73675;SDS011;61975;48.660;10.164;2023-08-31T00:49:14;3.80;;;1.50;;
73675;SDS011;61975;48.660;10.164;2023-08-31T00:51:40;3.60;;;1.60;;
73675;SDS011;61975;48.660;10.164;2023-08-31T00:54:06;4.35;;;1.60;;
73675;SDS011;61975;48.660;10.164;2023-08-31T00:56:31;3.80;;;1.43;;
73675;SDS011;61975;48.660;10.164;2023-08-31T00:58:57;3.70;;;1.25;;
73675;SDS011;61975;48.660;10.164;2023-08-31T01:04:18;3.80;;;1.48;;
73675;SDS011;61975;48.660;10.164;2023-08-31T01:06:53;3.33;;;1.43;;
73675;SDS011;61975;48.660;10.164;2023-08-31T01:12:28;3.90;;;1.67;;
73675;SDS011;61975;48.660;10.164;2023-08-31T01:15:05;3.90;;;1.50;;
73675;SDS011;61975;48.660;10.164;2023-08-31T01:17:43;4.10;;;1.55;;
73675;SDS011;61975;48.660;10.164;2023-08-31T01:20:12;4.13;;;1.60;;
73675;SDS011;61975;48.660;10.164;2023-08-31T01:25:20;4.35;;;1.70;;
73675;SDS011;61975;48.660;10.164;2023-08-31T01:27:45;5.20;;;1.80;;
73675;SDS011;61975;48.660;10.164;2023-08-31T01:30:11;4.05;;;1.77;;
73675;SDS011;61975;48.660;10.164;2023-08-31T01:32:36;4.32;;;1.63;;
73675;SDS011;61975;48.660;10.164;2023-08-31T01:35:02;3.87;;;1.90;;
73675;SDS011;61975;48.660;10.164;2023-08-31T01:40:11;3.87;;;1.77;;
73675;SDS011;61975;48.660;10.164;2023-08-31T01:42:41;3.95;;;1.95;;
73675;SDS011;61975;48.660;10.164;2023-08-31T01:45:07;4.78;;;1.95;;
73675;SDS011;61975;48.660;10.164;2023-08-31T01:47:34;5.78;;;2.15;;
73675;SDS011;61975;48.660;10.164;2023-08-31T01:49:59;5.43;;;2.10;;
73675;SDS011;61975;48.660;10.164;2023-08-31T01:52:25;5.47;;;1.90;;
73675;SDS011;61975;48.660;10.164;2023-08-31T01:54:50;4.90;;;2.10;;
73675;SDS011;61975;48.660;10.164;2023-08-31T01:57:15;4.90;;;1.73;;
73675;SDS011;61975;48.660;10.164;2023-08-31T01:59:41;4.83;;;1.97;;
73675;SDS011;61975;48.660;10.164;2023-08-31T02:02:06;5.30;;;2.10;;
73675;SDS011;61975;48.660;10.164;2023-08-31T02:04:31;4.90;;;2.07;;
73675;SDS011;61975;48.660;10.164;2023-08-31T02:06:57;3.58;;;1.80;;
73675;SDS011;61975;48.660;10.164;2023-08-31T02:09:23;3.77;;;1.73;;
73675;SDS011;61975;48.660;10.164;2023-08-31T02:11:48;4.27;;;2.00;;
73675;SDS011;61975;48.660;10.164;2023-08-31T02:14:13;4.53;;;1.90;;
73675;SDS011;61975;48.660;10.164;2023-08-31T02:16:39;4.40;;;2.10;;
73675;SDS011;61975;48.660;10.164;2023-08-31T02:19:04;5.13;;;2.00;;
73675;SDS011;61975;48.660;10.164;2023-08-31T02:21:30;4.90;;;1.97;;
73675;SDS011;61975;48.660;10.164;2023-08-31T02:23:55;3.50;;;1.80;;
73675;SDS011;61975;48.660;10.164;2023-08-31T02:26:21;5.30;;;2.10;;
73675;SDS011;61975;48.660;10.164;2023-08-31T02:28:47;4.18;;;2.22;;
73675;SDS011;61975;48.660;10.164;2023-08-31T02:31:13;5.40;;;2.17;;
73675;SDS011;61975;48.660;10.164;2023-08-31T02:33:39;5.78;;;2.10;;
73675;SDS011;61975;48.660;10.164;2023-08-31T02:36:04;4.70;;;2.17;;
73675;SDS011;61975;48.660;10.164;2023-08-31T02:38:29;5.87;;;2.20;;
73675;SDS011;61975;48.660;10.164;2023-08-31T02:40:55;7.70;;;2.40;;
73675;SDS011;61975;48.660;10.164;2023-08-31T02:43:20;4.77;;;2.33;;
73675;SDS011;61975;48.660;10.164;2023-08-31T02:45:45;4.50;;;2.10;;
73675;SDS011;61975;48.660;10.164;2023-08-31T02:48:11;4.47;;;1.90;;
73675;SDS011;61975;48.660;10.164;2023-08-31T02:50:38;5.22;;;2.38;;
73675;SDS011;61975;48.660;10.164;2023-08-31T02:53:04;4.23;;;2.00;;
73675;SDS011;61975;48.660;10.164;2023-08-31T02:55:33;5.05;;;2.10;;
73675;SDS011;61975;48.660;10.164;2023-08-31T02:57:58;4.97;;;2.20;;
73675;SDS011;61975;48.660;10.164;2023-08-31T03:00:24;4.20;;;2.03;;
73675;SDS011;61975;48.660;10.164;2023-08-31T03:02:49;4.33;;;2.00;;
73675;SDS011;61975;48.660;10.164;2023-08-31T03:05:18;5.18;;;2.15;;
73675;SDS011;61975;48.660;10.164;2023-08-31T03:07:44;7.10;;;1.92;;
73675;SDS011;61975;48.660;10.164;2023-08-31T03:10:09;6.13;;;2.30;;
73675;SDS011;61975;48.660;10.164;2023-08-31T03:12:35;5.45;;;2.13;;
73675;SDS011;61975;48.660;10.164;2023-08-31T03:15:01;6.53;;;2.10;;
73675;SDS011;61975;48.660;10.164;2023-08-31T03:17:26;4.27;;;2.00;;
73675;SDS011;61975;48.660;10.164;2023-08-31T03:19:51;4.57;;;2.25;;
73675;SDS011;61975;48.660;10.164;2023-08-31T03:22:17;5.30;;;2.10;;
73675;SDS011;61975;48.660;10.164;2023-08-31T03:24:42;4.60;;;1.93;;
73675;SDS011;61975;48.660;10.164;2023-08-31T03:27:08;5.87;;;2.20;;
73675;SDS011;61975;48.660;10.164;2023-08-31T03:29:33;5.30;;;1.70;;
73675;SDS011;61975;48.660;10.164;2023-08-31T03:31:59;4.40;;;2.20;;
73675;SDS011;61975;48.660;10.164;2023-08-31T03:34:29;4.22;;;2.30;;
73675;SDS011;61975;48.660;10.164;2023-08-31T03:36:55;5.65;;;2.20;;
73675;SDS011;61975;48.660;10.164;2023-08-31T03:39:21;4.18;;;1.92;;
73675;SDS011;61975;48.660;10.164;2023-08-31T03:41:47;5.93;;;2.20;;
73675;SDS011;61975;48.660;10.164;2023-08-31T03:44:12;4.57;;;2.30;;
73675;SDS011;61975;48.660;10.164;2023-08-31T03:46:37;5.97;;;2.30;;
73675;SDS011;61975;48.660;10.164;2023-08-31T03:49:03;5.30;;;2.33;;
73675;SDS011;61975;48.660;10.164;2023-08-31T03:51:28;4.90;;;2.50;;
73675;SDS011;61975;48.660;10.164;2023-08-31T03:53:54;5.00;;;2.10;;
73675;SDS011;61975;48.660;10.164;2023-08-31T03:56:21;5.28;;;2.30;;
73675;SDS011;61975;48.660;10.164;2023-08-31T03:58:47;4.63;;;2.25;;
73675;SDS011;61975;48.660;10.164;2023-08-31T04:01:12;5.25;;;2.60;;
73675;SDS011;61975;48.660;10.164;2023-08-31T04:03:39;4.30;;;2.20;;
73675;SDS011;61975;48.660;10.164;2023-08-31T04:06:04;4.28;;;2.00;;
73675;SDS011;61975;48.660;10.164;2023-08-31T04:08:30;5.10;;;2.30;;
73675;SDS011;61975;48.660;10.164;2023-08-31T04:10:55;3.87;;;1.73;;
73675;SDS011;61975;48.660;10.164;2023-08-31T04:13:21;4.93;;;2.20;;
73675;SDS011;61975;48.660;10.164;2023-08-31T04:15:47;6.40;;;2.10;;
73675;SDS011;61975;48.660;10.164;2023-08-31T04:18:12;4.57;;;2.13;;
73675;SDS011;61975;48.660;10.164;2023-08-31T04:20:37;4.33;;;2.10;;
73675;SDS011;61975;48.660;10.164;2023-08-31T04:23:03;3.87;;;2.07;;
73675;SDS011;61975;48.660;10.164;2023-08-31T04:25:28;4.32;;;1.95;;
73675;SDS011;61975;48.660;10.164;2023-08-31T04:27:56;5.53;;;2.22;;
73675;SDS011;61975;48.660;10.164;2023-08-31T04:30:22;5.37;;;2.30;;
73675;SDS011;61975;48.660;10.164;2023-08-31T04:32:47;5.30;;;2.47;;
73675;SDS011;61975;48.660;10.164;2023-08-31T04:35:13;5.65;;;2.60;;
73675;SDS011;61975;48.660;10.164;2023-08-31T04:37:38;6.40;;;2.57;;
73675;SDS011;61975;48.660;10.164;2023-08-31T04:40:04;4.30;;;2.10;;
73675;SDS011;61975;48.660;10.164;2023-08-31T04:42:30;5.30;;;2.50;;
73675;SDS011;61975;48.660;10.164;2023-08-31T04:44:55;4.70;;;2.07;;
73675;SDS011;61975;48.660;10.164;2023-08-31T04:47:21;4.70;;;2.25;;
73675;SDS011;61975;48.660;10.164;2023-08-31T04:49:46;4.78;;;2.35;;
73675;SDS011;61975;48.660;10.164;2023-08-31T04:52:11;4.80;;;2.30;;
73675;SDS011;61975;48.660;10.164;2023-08-31T04:54:37;4.40;;;2.20;;
73675;SDS011;61975;48.660;10.164;2023-08-31T04:57:02;4.20;;;2.20;;
73675;SDS011;61975;48.660;10.164;2023-08-31T04:59:28;4.60;;;2.03;;
73675;SDS011;61975;48.660;10.164;2023-08-31T05:01:53;4.50;;;2.20;;
73675;SDS011;61975;48.660;10.164;2023-08-31T05:04:19;6.60;;;2.43;;
73675;SDS011;61975;48.660;10.164;2023-08-31T05:06:44;5.20;;;2.20;;
73675;SDS011;61975;48.660;10.164;2023-08-31T05:09:09;4.67;;;2.17;;
73675;SDS011;61975;48.660;10.164;2023-08-31T05:11:35;6.03;;;2.55;;
73675;SDS011;61975;48.660;10.164;2023-08-31T05:14:00;6.13;;;2.70;;
73675;SDS011;61975;48.660;10.164;2023-08-31T05:16:25;4.73;;;2.50;;
73675;SDS011;61975;48.660;10.164;2023-08-31T05:18:51;4.97;;;2.60;;
73675;SDS011;61975;48.660;10.164;2023-08-31T05:21:16;4.90;;;2.30;;
73675;SDS011;61975;48.660;10.164;2023-08-31T05:23:41;4.17;;;2.30;;
73675;SDS011;61975;48.660;10.164;2023-08-31T05:26:07;6.35;;;2.50;;
73675;SDS011;61975;48.660;10.164;2023-08-31T05:28:33;5.05;;;2.10;;
73675;SDS011;61975;48.660;10.164;2023-08-31T05:31:00;5.40;;;2.60;;
73675;SDS011;61975;48.660;10.164;2023-08-31T05:33:26;6.40;;;2.60;;
73675;SDS011;61975;48.660;10.164;2023-08-31T05:35:53;5.43;;;2.35;;
73675;SDS011;61975;48.660;10.164;2023-08-31T05:38:19;5.07;;;2.30;;
73675;SDS011;61975;48.660;10.164;2023-08-31T05:40:44;4.37;;;1.90;;
73675;SDS011;61975;48.660;10.164;2023-08-31T05:43:13;4.72;;;2.05;;
73675;SDS011;61975;48.660;10.164;2023-08-31T05:45:38;5.40;;;2.22;;
73675;SDS011;61975;48.660;10.164;2023-08-31T05:48:04;4.80;;;2.17;;
73675;SDS011;61975;48.660;10.164;2023-08-31T05:50:30;5.67;;;2.53;;
73675;SDS011;61975;48.660;10.164;2023-08-31T05:52:55;5.65;;;2.40;;
73675;SDS011;61975;48.660;10.164;2023-08-31T05:55:21;4.35;;;2.33;;
73675;SDS011;61975;48.660;10.164;2023-08-31T05:57:47;5.27;;;2.53;;
73675;SDS011;61975;48.660;10.164;2023-08-31T06:00:12;5.23;;;2.40;;
73675;SDS011;61975;48.660;10.164;2023-08-31T06:02:38;4.63;;;2.30;;
73675;SDS011;61975;48.660;10.164;2023-08-31T06:05:04;5.10;;;2.40;;
73675;SDS011;61975;48.660;10.164;2023-08-31T06:07:30;4.72;;;2.63;;
73675;SDS011;61975;48.660;10.164;2023-08-31T06:09:56;7.90;;;2.50;;
73675;SDS011;61975;48.660;10.164;2023-08-31T06:12:22;8.35;;;2.63;;
73675;SDS011;61975;48.660;10.164;2023-08-31T06:14:47;5.37;;;2.47;;
73675;SDS011;61975;48.660;10.164;2023-08-31T06:17:12;4.50;;;2.30;;
73675;SDS011;61975;48.660;10.164;2023-08-31T06:19:41;5.27;;;2.40;;
73675;SDS011;61975;48.660;10.164;2023-08-31T06:22:07;5.07;;;2.38;;
73675;SDS011;61975;48.660;10.164;2023-08-31T06:24:33;5.95;;;2.30;;
73675;SDS011;61975;48.660;10.164;2023-08-31T06:26:59;4.27;;;2.33;;
73675;SDS011;61975;48.660;10.164;2023-08-31T06:29:25;6.90;;;2.63;;
73675;SDS011;61975;48.660;10.164;2023-08-31T06:31:50;6.23;;;2.80;;
73675;SDS011;61975;48.660;10.164;2023-08-31T06:34:16;5.13;;;2.40;;
73675;SDS011;61975;48.660;10.164;2023-08-31T06:36:41;6.30;;;2.67;;
73675;SDS011;61975;48.660;10.164;2023-08-31T06:39:07;6.70;;;2.60;;
73675;SDS011;61975;48.660;10.164;2023-08-31T06:41:32;5.82;;;2.45;;
73675;SDS011;61975;48.660;10.164;2023-08-31T06:43:58;5.97;;;2.53;;
73675;SDS011;61975;48.660;10.164;2023-08-31T06:46:24;4.80;;;2.37;;
73675;SDS011;61975;48.660;10.164;2023-08-31T06:48:49;5.90;;;2.60;;
73675;SDS011;61975;48.660;10.164;2023-08-31T06:51:15;5.40;;;2.67;;
73675;SDS011;61975;48.660;10.164;2023-08-31T06:53:41;5.13;;;2.53;;
73675;SDS011;61975;48.660;10.164;2023-08-31T06:56:08;6.30;;;2.10;;
73675;SDS011;61975;48.660;10.164;2023-08-31T06:58:33;4.20;;;2.20;;
73675;SDS011;61975;48.660;10.164;2023-08-31T07:00:59;5.95;;;2.47;;
73675;SDS011;61975;48.660;10.164;2023-08-31T07:03:24;4.93;;;2.23;;
73675;SDS011;61975;48.660;10.164;2023-08-31T07:05:49;5.07;;;2.50;;
73675;SDS011;61975;48.660;10.164;2023-08-31T07:08:15;6.53;;;2.90;;
73675;SDS011;61975;48.660;10.164;2023-08-31T07:10:40;6.33;;;2.30;;
73675;SDS011;61975;48.660;10.164;2023-08-31T07:13:06;6.87;;;2.60;;
73675;SDS011;61975;48.660;10.164;2023-08-31T07:15:32;5.40;;;2.20;;
73675;SDS011;61975;48.660;10.164;2023-08-31T07:17:57;5.00;;;1.92;;
73675;SDS011;61975;48.660;10.164;2023-08-31T07:20:23;4.67;;;2.00;;
73675;SDS011;61975;48.660;10.164;2023-08-31T07:22:48;5.17;;;2.40;;
73675;SDS011;61975;48.660;10.164;2023-08-31T07:25:13;5.43;;;2.30;;
73675;SDS011;61975;48.660;10.164;2023-08-31T07:27:39;4.43;;;2.00;;
73675;SDS011;61975;48.660;10.164;2023-08-31T07:30:05;6.78;;;2.30;;
73675;SDS011;61975;48.660;10.164;2023-08-31T07:32:31;5.07;;;1.98;;
73675;SDS011;61975;48.660;10.164;2023-08-31T07:34:57;5.07;;;1.95;;
73675;SDS011;61975;48.660;10.164;2023-08-31T07:37:22;4.40;;;1.80;;
73675;SDS011;61975;48.660;10.164;2023-08-31T07:39:47;4.93;;;2.10;;
73675;SDS011;61975;48.660;10.164;2023-08-31T07:42:13;8.10;;;1.90;;
73675;SDS011;61975;48.660;10.164;2023-08-31T07:44:38;5.60;;;2.05;;
73675;SDS011;61975;48.660;10.164;2023-08-31T07:47:04;4.13;;;1.80;;
73675;SDS011;61975;48.660;10.164;2023-08-31T07:49:30;5.47;;;1.80;;
73675;SDS011;61975;48.660;10.164;2023-08-31T07:51:55;5.13;;;1.97;;
73675;SDS011;61975;48.660;10.164;2023-08-31T07:54:21;5.27;;;1.80;;
73675;SDS011;61975;48.660;10.164;2023-08-31T07:56:47;3.35;;;1.40;;
73675;SDS011;61975;48.660;10.164;2023-08-31T07:59:13;4.07;;;1.40;;
73675;SDS011;61975;48.660;10.164;2023-08-31T08:01:38;3.10;;;1.27;;
73675;SDS011;61975;48.660;10.164;2023-08-31T08:04:03;4.35;;;1.83;;
73675;SDS011;61975;48.660;10.164;2023-08-31T08:06:29;5.18;;;1.70;;
73675;SDS011;61975;48.660;10.164;2023-08-31T08:08:54;6.40;;;1.47;;
73675;SDS011;61975;48.660;10.164;2023-08-31T08:11:21;4.93;;;1.60;;
73675;SDS011;61975;48.660;10.164;2023-08-31T08:13:47;5.18;;;1.55;;
73675;SDS011;61975;48.660;10.164;2023-08-31T08:16:12;5.73;;;1.53;;
73675;SDS011;61975;48.660;10.164;2023-08-31T08:18:39;4.57;;;1.30;;
73675;SDS011;61975;48.660;10.164;2023-08-31T08:21:05;3.03;;;1.53;;
73675;SDS011;61975;48.660;10.164;2023-08-31T08:23:30;6.82;;;1.70;;
73675;SDS011;61975;48.660;10.164;2023-08-31T08:25:55;3.63;;;1.65;;
73675;SDS011;61975;48.660;10.164;2023-08-31T08:28:21;5.30;;;1.63;;
73675;SDS011;61975;48.660;10.164;2023-08-31T08:30:46;5.30;;;1.50;;
73675;SDS011;61975;48.660;10.164;2023-08-31T08:33:12;4.33;;;1.50;;
73675;SDS011;61975;48.660;10.164;2023-08-31T08:35:37;3.60;;;1.70;;
73675;SDS011;61975;48.660;10.164;2023-08-31T08:38:04;4.55;;;1.85;;
73675;SDS011;61975;48.660;10.164;2023-08-31T08:40:33;6.20;;;1.75;;
73675;SDS011;61975;48.660;10.164;2023-08-31T08:43:02;4.88;;;1.90;;
73675;SDS011;61975;48.660;10.164;2023-08-31T08:45:36;3.95;;;1.73;;
73675;SDS011;61975;48.660;10.164;2023-08-31T08:48:05;5.28;;;1.95;;
73675;SDS011;61975;48.660;10.164;2023-08-31T08:50:33;4.18;;;1.83;;
73675;SDS011;61975;48.660;10.164;2023-08-31T08:52:59;5.53;;;1.77;;
73675;SDS011;61975;48.660;10.164;2023-08-31T08:55:27;4.90;;;1.90;;
73675;SDS011;61975;48.660;10.164;2023-08-31T08:57:52;4.13;;;1.90;;
73675;SDS011;61975;48.660;10.164;2023-08-31T09:00:17;3.70;;;1.77;;
73675;SDS011;61975;48.660;10.164;2023-08-31T09:02:43;4.63;;;1.73;;
73675;SDS011;61975;48.660;10.164;2023-08-31T09:05:10;5.57;;;1.70;;
73675;SDS011;61975;48.660;10.164;2023-08-31T09:07:35;5.25;;;1.70;;
73675;SDS011;61975;48.660;10.164;2023-08-31T09:10:03;5.30;;;1.90;;
73675;SDS011;61975;48.660;10.164;2023-08-31T09:12:29;4.57;;;1.83;;
73675;SDS011;61975;48.660;10.164;2023-08-31T09:15:02;3.87;;;1.67;;
73675;SDS011;61975;48.660;10.164;2023-08-31T09:17:41;3.50;;;1.40;;
73675;SDS011;61975;48.660;10.164;2023-08-31T09:20:09;5.20;;;1.33;;
73675;SDS011;61975;48.660;10.164;2023-08-31T09:22:35;5.15;;;1.58;;
73675;SDS011;61975;48.660;10.164;2023-08-31T09:25:01;3.20;;;1.13;;
73675;SDS011;61975;48.660;10.164;2023-08-31T09:27:28;4.63;;;1.40;;
73675;SDS011;61975;48.660;10.164;2023-08-31T09:29:56;4.55;;;1.58;;
73675;SDS011;61975;48.660;10.164;2023-08-31T09:32:21;4.20;;;1.50;;
73675;SDS011;61975;48.660;10.164;2023-08-31T09:34:47;5.00;;;1.50;;
73675;SDS011;61975;48.660;10.164;2023-08-31T09:37:15;3.63;;;1.40;;
73675;SDS011;61975;48.660;10.164;2023-08-31T09:39:41;5.10;;;1.50;;
73675;SDS011;61975;48.660;10.164;2023-08-31T09:42:06;4.60;;;1.40;;
73675;SDS011;61975;48.660;10.164;2023-08-31T09:44:32;5.40;;;1.60;;
73675;SDS011;61975;48.660;10.164;2023-08-31T09:46:57;3.47;;;1.17;;
73675;SDS011;61975;48.660;10.164;2023-08-31T09:49:23;4.27;;;1.50;;
73675;SDS011;61975;48.660;10.164;2023-08-31T09:51:50;5.03;;;1.48;;
73675;SDS011;61975;48.660;10.164;2023-08-31T09:54:17;3.63;;;1.30;;
73675;SDS011;61975;48.660;10.164;2023-08-31T09:56:49;4.40;;;1.20;;
73675;SDS011;61975;48.660;10.164;2023-08-31T09:59:15;4.35;;;1.50;;
73675;SDS011;61975;48.660;10.164;2023-08-31T10:01:42;4.38;;;1.38;;
73675;SDS011;61975;48.660;10.164;2023-08-31T10:04:10;5.45;;;1.20;;
73675;SDS011;61975;48.660;10.164;2023-08-31T10:06:40;4.45;;;1.17;;
73675;SDS011;61975;48.660;10.164;2023-08-31T10:09:06;4.43;;;1.20;;
73675;SDS011;61975;48.660;10.164;2023-08-31T10:11:34;3.78;;;1.25;;
73675;SDS011;61975;48.660;10.164;2023-08-31T10:14:01;4.20;;;1.43;;
73675;SDS011;61975;48.660;10.164;2023-08-31T10:16:29;3.17;;;1.08;;
73675;SDS011;61975;48.660;10.164;2023-08-31T10:18:55;6.07;;;1.35;;
73675;SDS011;61975;48.660;10.164;2023-08-31T10:21:21;5.07;;;1.20;;
73675;SDS011;61975;48.660;10.164;2023-08-31T10:23:47;3.10;;;1.08;;
73675;SDS011;61975;48.660;10.164;2023-08-31T10:26:29;5.30;;;1.33;;
73675;SDS011;61975;48.660;10.164;2023-08-31T10:28:57;6.07;;;1.35;;
73675;SDS011;61975;48.660;10.164;2023-08-31T10:31:23;4.13;;;1.40;;
73675;SDS011;61975;48.660;10.164;2023-08-31T10:36:38;4.35;;;1.40;;
73675;SDS011;61975;48.660;10.164;2023-08-31T10:39:05;5.30;;;1.47;;
73675;SDS011;61975;48.660;10.164;2023-08-31T10:41:55;4.00;;;1.50;;
73675;SDS011;61975;48.660;10.164;2023-08-31T10:44:22;3.83;;;1.33;;
73675;SDS011;61975;48.660;10.164;2023-08-31T10:46:59;4.07;;;1.30;;
73675;SDS011;61975;48.660;10.164;2023-08-31T10:49:25;3.70;;;1.20;;
73675;SDS011;61975;48.660;10.164;2023-08-31T10:51:57;4.33;;;1.60;;
73675;SDS011;61975;48.660;10.164;2023-08-31T10:54:39;4.85;;;1.60;;
73675;SDS011;61975;48.660;10.164;2023-08-31T10:57:05;4.03;;;1.43;;
73675;SDS011;61975;48.660;10.164;2023-08-31T11:05:23;3.80;;;1.45;;
73675;SDS011;61975;48.660;10.164;2023-08-31T11:07:48;3.33;;;1.33;;
73675;SDS011;61975;48.660;10.164;2023-08-31T11:12:49;4.45;;;1.50;;
73675;SDS011;61975;48.660;10.164;2023-08-31T11:15:16;3.90;;;1.30;;
73675;SDS011;61975;48.660;10.164;2023-08-31T11:17:43;3.55;;;1.30;;
73675;SDS011;61975;48.660;10.164;2023-08-31T11:20:13;4.80;;;1.60;;
73675;SDS011;61975;48.660;10.164;2023-08-31T11:22:44;3.58;;;1.20;;
73675;SDS011;61975;48.660;10.164;2023-08-31T11:25:11;5.07;;;1.40;;
73675;SDS011;61975;48.660;10.164;2023-08-31T11:27:38;4.47;;;1.30;;
73675;SDS011;61975;48.660;10.164;2023-08-31T11:30:14;5.00;;;1.52;;
73675;SDS011;61975;48.660;10.164;2023-08-31T11:32:46;3.63;;;1.53;;
73675;SDS011;61975;48.660;10.164;2023-08-31T11:35:14;4.03;;;1.35;;
73675;SDS011;61975;48.660;10.164;2023-08-31T11:37:42;5.28;;;1.83;;
73675;SDS011;61975;48.660;10.164;2023-08-31T11:40:08;5.03;;;1.52;;
73675;SDS011;61975;48.660;10.164;2023-08-31T11:42:34;4.33;;;1.50;;
73675;SDS011;61975;48.660;10.164;2023-08-31T11:45:00;7.57;;;1.40;;
73675;SDS011;61975;48.660;10.164;2023-08-31T11:47:25;3.67;;;1.27;;
73675;SDS011;61975;48.660;10.164;2023-08-31T11:49:51;3.28;;;1.25;;
73675;SDS011;61975;48.660;10.164;2023-08-31T11:52:17;4.37;;;1.37;;
73675;SDS011;61975;48.660;10.164;2023-08-31T11:54:43;5.20;;;1.30;;
73675;SDS011;61975;48.660;10.164;2023-08-31T11:57:09;5.00;;;1.30;;
73675;SDS011;61975;48.660;10.164;2023-08-31T11:59:35;4.85;;;1.30;;
73675;SDS011;61975;48.660;10.164;2023-08-31T12:02:05;4.95;;;1.77;;
73675;SDS011;61975;48.660;10.164;2023-08-31T12:04:31;4.15;;;1.30;;
73675;SDS011;61975;48.660;10.164;2023-08-31T12:07:02;3.50;;;1.30;;
73675;SDS011;61975;48.660;10.164;2023-08-31T12:09:32;3.60;;;1.13;;
73675;SDS011;61975;48.660;10.164;2023-08-31T12:11:57;4.47;;;1.70;;
73675;SDS011;61975;48.660;10.164;2023-08-31T12:14:25;3.47;;;1.40;;
73675;SDS011;61975;48.660;10.164;2023-08-31T12:16:52;3.00;;;1.25;;
73675;SDS011;61975;48.660;10.164;2023-08-31T12:19:28;5.57;;;1.50;;
73675;SDS011;61975;48.660;10.164;2023-08-31T12:21:57;4.50;;;1.48;;
73675;SDS011;61975;48.660;10.164;2023-08-31T12:24:23;4.23;;;1.50;;
73675;SDS011;61975;48.660;10.164;2023-08-31T12:26:49;4.90;;;1.45;;
73675;SDS011;61975;48.660;10.164;2023-08-31T12:29:15;3.83;;;1.60;;
73675;SDS011;61975;48.660;10.164;2023-08-31T12:31:50;4.70;;;1.47;;
73675;SDS011;61975;48.660;10.164;2023-08-31T12:34:15;4.10;;;1.52;;
73675;SDS011;61975;48.660;10.164;2023-08-31T12:36:41;3.43;;;1.40;;
73675;SDS011;61975;48.660;10.164;2023-08-31T12:39:06;6.47;;;1.63;;
73675;SDS011;61975;48.660;10.164;2023-08-31T12:41:35;5.37;;;1.40;;
73675;SDS011;61975;48.660;10.164;2023-08-31T12:44:03;5.03;;;1.40;;
73675;SDS011;61975;48.660;10.164;2023-08-31T12:46:30;4.78;;;1.48;;
73675;SDS011;61975;48.660;10.164;2023-08-31T12:48:56;4.65;;;2.00;;
73675;SDS011;61975;48.660;10.164;2023-08-31T12:51:22;3.83;;;1.45;;
73675;SDS011;61975;48.660;10.164;2023-08-31T12:53:47;5.20;;;1.47;;
73675;SDS011;61975;48.660;10.164;2023-08-31T12:56:13;4.40;;;1.50;;
73675;SDS011;61975;48.660;10.164;2023-08-31T12:58:40;4.10;;;1.55;;
73675;SDS011;61975;48.660;10.164;2023-08-31T13:01:05;4.73;;;1.60;;
73675;SDS011;61975;48.660;10.164;2023-08-31T13:03:31;4.97;;;1.53;;
73675;SDS011;61975;48.660;10.164;2023-08-31T13:05:56;7.00;;;1.80;;
73675;SDS011;61975;48.660;10.164;2023-08-31T13:08:22;4.47;;;1.58;;
73675;SDS011;61975;48.660;10.164;2023-08-31T13:10:51;4.97;;;1.63;;
73675;SDS011;61975;48.660;10.164;2023-08-31T13:13:18;3.60;;;1.50;;
73675;SDS011;61975;48.660;10.164;2023-08-31T13:15:45;4.40;;;1.48;;
73675;SDS011;61975;48.660;10.164;2023-08-31T13:18:11;4.23;;;1.50;;
73675;SDS011;61975;48.660;10.164;2023-08-31T13:20:36;3.78;;;1.50;;
73675;SDS011;61975;48.660;10.164;2023-08-31T13:23:02;3.97;;;1.50;;
73675;SDS011;61975;48.660;10.164;2023-08-31T13:25:28;3.93;;;1.60;;
73675;SDS011;61975;48.660;10.164;2023-08-31T13:27:53;5.25;;;1.95;;
73675;SDS011;61975;48.660;10.164;2023-08-31T13:30:19;5.27;;;1.40;;
73675;SDS011;61975;48.660;10.164;2023-08-31T13:32:44;4.77;;;1.47;;
73675;SDS011;61975;48.660;10.164;2023-08-31T13:35:09;4.03;;;1.50;;
73675;SDS011;61975;48.660;10.164;2023-08-31T13:37:35;5.67;;;1.70;;
73675;SDS011;61975;48.660;10.164;2023-08-31T13:40:00;5.17;;;1.70;;
73675;SDS011;61975;48.660;10.164;2023-08-31T13:42:26;5.30;;;1.70;;
73675;SDS011;61975;48.660;10.164;2023-08-31T13:44:51;5.27;;;1.50;;
73675;SDS011;61975;48.660;10.164;2023-08-31T13:47:17;4.30;;;1.80;;
73675;SDS011;61975;48.660;10.164;2023-08-31T13:49:43;4.53;;;1.60;;
73675;SDS011;61975;48.660;10.164;2023-08-31T13:52:08;5.93;;;1.50;;
73675;SDS011;61975;48.660;10.164;2023-08-31T13:54:35;3.77;;;1.33;;
73675;SDS011;61975;48.660;10.164;2023-08-31T13:57:01;3.75;;;1.30;;
73675;SDS011;61975;48.660;10.164;2023-08-31T13:59:26;4.93;;;1.40;;
73675;SDS011;61975;48.660;10.164;2023-08-31T14:01:53;4.20;;;1.38;;
73675;SDS011;61975;48.660;10.164;2023-08-31T14:04:18;4.33;;;1.63;;
73675;SDS011;61975;48.660;10.164;2023-08-31T14:06:44;6.00;;;1.27;;
73675;SDS011;61975;48.660;10.164;2023-08-31T14:09:09;3.80;;;1.50;;
73675;SDS011;61975;48.660;10.164;2023-08-31T14:11:35;4.67;;;1.40;;
73675;SDS011;61975;48.660;10.164;2023-08-31T14:14:01;4.63;;;1.40;;
73675;SDS011;61975;48.660;10.164;2023-08-31T14:16:34;3.77;;;1.43;;
73675;SDS011;61975;48.660;10.164;2023-08-31T14:19:01;5.13;;;1.40;;
73675;SDS011;61975;48.660;10.164;2023-08-31T14:21:27;5.55;;;1.60;;
73675;SDS011;61975;48.660;10.164;2023-08-31T14:23:52;3.53;;;1.23;;
73675;SDS011;61975;48.660;10.164;2023-08-31T14:26:20;3.67;;;1.35;;
73675;SDS011;61975;48.660;10.164;2023-08-31T14:28:47;4.18;;;1.70;;
73675;SDS011;61975;48.660;10.164;2023-08-31T14:31:13;3.30;;;1.20;;
73675;SDS011;61975;48.660;10.164;2023-08-31T14:33:38;4.97;;;1.50;;
73675;SDS011;61975;48.660;10.164;2023-08-31T14:36:03;3.80;;;1.50;;
73675;SDS011;61975;48.660;10.164;2023-08-31T14:38:29;4.13;;;1.13;;
73675;SDS011;61975;48.660;10.164;2023-08-31T14:40:54;3.83;;;1.53;;
73675;SDS011;61975;48.660;10.164;2023-08-31T14:43:20;4.90;;;1.40;;
73675;SDS011;61975;48.660;10.164;2023-08-31T14:45:47;4.87;;;1.47;;
73675;SDS011;61975;48.660;10.164;2023-08-31T14:48:12;5.57;;;1.67;;
73675;SDS011;61975;48.660;10.164;2023-08-31T14:50:41;3.60;;;1.40;;